sensor_id;sensor_type;location;lat;lon;timestamp;P1;durP1;ratioP1;P2;durP2;ratioP2
57828;SDS011;43657;52.698;6.314;2022-08-14T00:02:16;8.73;;;7.90;;
57828;SDS011;43657;52.698;6.314;2022-08-14T00:04:43;8.52;;;7.63;;
57828;SDS011;43657;52.698;6.314;2022-08-14T00:07:12;8.10;;;7.30;;
57828;SDS011;43657;52.698;6.314;2022-08-14T00:09:38;8.20;;;7.40;;
57828;SDS011;43657;52.698;6.314;2022-08-14T00:12:04;8.55;;;7.72;;
57828;SDS011;43657;52.698;6.314;2022-08-14T00:14:30;8.43;;;7.63;;
57828;SDS011;43657;52.698;6.314;2022-08-14T00:16:58;8.82;;;8.02;;
57828;SDS011;43657;52.698;6.314;2022-08-14T00:19:27;9.50;;;7.95;;
57828;SDS011;43657;52.698;6.314;2022-08-14T00:21:52;9.13;;;8.32;;
57828;SDS011;43657;52.698;6.314;2022-08-14T00:24:18;9.43;;;8.52;;
57828;SDS011;43657;52.698;6.314;2022-08-14T00:26:47;8.70;;;7.90;;
57828;SDS011;43657;52.698;6.314;2022-08-14T00:29:13;9.38;;;8.48;;
57828;SDS011;43657;52.698;6.314;2022-08-14T00:31:39;9.20;;;8.18;;
57828;SDS011;43657;52.698;6.314;2022-08-14T00:34:06;8.50;;;7.70;;
57828;SDS011;43657;52.698;6.314;2022-08-14T00:36:33;9.48;;;8.65;;
57828;SDS011;43657;52.698;6.314;2022-08-14T00:38:59;9.05;;;8.15;;
57828;SDS011;43657;52.698;6.314;2022-08-14T00:41:28;8.85;;;8.05;;
57828;SDS011;43657;52.698;6.314;2022-08-14T00:43:56;9.88;;;7.95;;
57828;SDS011;43657;52.698;6.314;2022-08-14T00:46:24;9.38;;;8.38;;
57828;SDS011;43657;52.698;6.314;2022-08-14T00:48:49;9.10;;;8.30;;
57828;SDS011;43657;52.698;6.314;2022-08-14T00:51:15;8.65;;;7.72;;
57828;SDS011;43657;52.698;6.314;2022-08-14T00:53:42;8.80;;;8.00;;
57828;SDS011;43657;52.698;6.314;2022-08-14T00:56:12;8.90;;;8.00;;
57828;SDS011;43657;52.698;6.314;2022-08-14T00:58:38;8.88;;;7.97;;
57828;SDS011;43657;52.698;6.314;2022-08-14T01:01:05;9.35;;;7.82;;
57828;SDS011;43657;52.698;6.314;2022-08-14T01:03:33;9.15;;;8.32;;
57828;SDS011;43657;52.698;6.314;2022-08-14T01:06:02;8.60;;;7.80;;
57828;SDS011;43657;52.698;6.314;2022-08-14T01:08:29;9.10;;;8.20;;
57828;SDS011;43657;52.698;6.314;2022-08-14T01:10:56;8.95;;;8.05;;
57828;SDS011;43657;52.698;6.314;2022-08-14T01:13:25;8.95;;;7.70;;
57828;SDS011;43657;52.698;6.314;2022-08-14T01:16:03;9.07;;;8.27;;
57828;SDS011;43657;52.698;6.314;2022-08-14T01:18:32;9.20;;;8.30;;
57828;SDS011;43657;52.698;6.314;2022-08-14T01:21:23;9.40;;;7.95;;
57828;SDS011;43657;52.698;6.314;2022-08-14T01:23:55;9.52;;;8.63;;
57828;SDS011;43657;52.698;6.314;2022-08-14T01:26:22;8.27;;;7.47;;
57828;SDS011;43657;52.698;6.314;2022-08-14T01:28:50;8.18;;;7.43;;
57828;SDS011;43657;52.698;6.314;2022-08-14T01:31:21;8.48;;;7.68;;
57828;SDS011;43657;52.698;6.314;2022-08-14T01:33:48;8.50;;;7.70;;
57828;SDS011;43657;52.698;6.314;2022-08-14T01:36:17;8.75;;;7.68;;
57828;SDS011;43657;52.698;6.314;2022-08-14T01:38:44;8.20;;;7.40;;
57828;SDS011;43657;52.698;6.314;2022-08-14T01:41:17;8.57;;;7.80;;
57828;SDS011;43657;52.698;6.314;2022-08-14T01:46:19;8.60;;;7.70;;
57828;SDS011;43657;52.698;6.314;2022-08-14T01:48:48;8.20;;;7.38;;
57828;SDS011;43657;52.698;6.314;2022-08-14T01:51:19;8.80;;;8.00;;
57828;SDS011;43657;52.698;6.314;2022-08-14T01:53:53;8.55;;;7.50;;
57828;SDS011;43657;52.698;6.314;2022-08-14T01:56:34;8.27;;;7.53;;
57828;SDS011;43657;52.698;6.314;2022-08-14T01:59:17;8.23;;;7.53;;
57828;SDS011;43657;52.698;6.314;2022-08-14T02:01:48;9.48;;;8.13;;
57828;SDS011;43657;52.698;6.314;2022-08-14T02:04:16;8.98;;;8.00;;
57828;SDS011;43657;52.698;6.314;2022-08-14T02:06:44;8.68;;;7.78;;
57828;SDS011;43657;52.698;6.314;2022-08-14T02:09:14;8.25;;;7.45;;
57828;SDS011;43657;52.698;6.314;2022-08-14T02:11:45;9.60;;;7.83;;
57828;SDS011;43657;52.698;6.314;2022-08-14T02:14:32;8.80;;;8.00;;
57828;SDS011;43657;52.698;6.314;2022-08-14T02:17:00;8.50;;;7.60;;
57828;SDS011;43657;52.698;6.314;2022-08-14T02:19:29;8.85;;;8.05;;
57828;SDS011;43657;52.698;6.314;2022-08-14T02:22:00;9.32;;;7.68;;
57828;SDS011;43657;52.698;6.314;2022-08-14T02:24:28;8.73;;;7.93;;
57828;SDS011;43657;52.698;6.314;2022-08-14T02:26:55;8.07;;;7.38;;
57828;SDS011;43657;52.698;6.314;2022-08-14T02:29:24;8.85;;;7.95;;
57828;SDS011;43657;52.698;6.314;2022-08-14T02:31:52;9.07;;;8.18;;
57828;SDS011;43657;52.698;6.314;2022-08-14T02:34:22;9.02;;;8.15;;
57828;SDS011;43657;52.698;6.314;2022-08-14T02:37:00;10.90;;;7.95;;
57828;SDS011;43657;52.698;6.314;2022-08-14T03:45:25;10.00;;;9.10;;
57828;SDS011;43657;52.698;6.314;2022-08-14T03:48:10;9.73;;;8.73;;
57828;SDS011;43657;52.698;6.314;2022-08-14T03:50:48;10.05;;;9.05;;
57828;SDS011;43657;52.698;6.314;2022-08-14T03:53:22;10.95;;;9.85;;
57828;SDS011;43657;52.698;6.314;2022-08-14T03:55:58;10.50;;;9.50;;
57828;SDS011;43657;52.698;6.314;2022-08-14T03:58:24;10.25;;;9.00;;
57828;SDS011;43657;52.698;6.314;2022-08-14T04:00:53;10.90;;;9.80;;
57828;SDS011;43657;52.698;6.314;2022-08-14T04:03:19;10.52;;;9.52;;
57828;SDS011;43657;52.698;6.314;2022-08-14T04:05:48;10.70;;;9.70;;
57828;SDS011;43657;52.698;6.314;2022-08-14T04:08:15;9.85;;;8.98;;
57828;SDS011;43657;52.698;6.314;2022-08-14T04:10:42;10.20;;;9.23;;
57828;SDS011;43657;52.698;6.314;2022-08-14T04:13:13;9.90;;;9.00;;
57828;SDS011;43657;52.698;6.314;2022-08-14T04:15:47;10.93;;;9.93;;
57828;SDS011;43657;52.698;6.314;2022-08-14T04:18:14;10.85;;;9.85;;
57828;SDS011;43657;52.698;6.314;2022-08-14T04:20:43;10.80;;;9.75;;
57828;SDS011;43657;52.698;6.314;2022-08-14T04:23:10;10.18;;;9.27;;
57828;SDS011;43657;52.698;6.314;2022-08-14T04:25:44;10.70;;;9.60;;
57828;SDS011;43657;52.698;6.314;2022-08-14T04:28:12;10.98;;;9.88;;
57828;SDS011;43657;52.698;6.314;2022-08-14T04:30:47;11.38;;;10.27;;
57828;SDS011;43657;52.698;6.314;2022-08-14T04:33:16;10.75;;;9.65;;
57828;SDS011;43657;52.698;6.314;2022-08-14T04:35:49;11.05;;;10.05;;
57828;SDS011;43657;52.698;6.314;2022-08-14T04:38:20;11.02;;;10.00;;
57828;SDS011;43657;52.698;6.314;2022-08-14T04:41:05;11.07;;;10.07;;
57828;SDS011;43657;52.698;6.314;2022-08-14T04:43:50;11.65;;;10.60;;
57828;SDS011;43657;52.698;6.314;2022-08-14T04:46:17;11.07;;;10.00;;
57828;SDS011;43657;52.698;6.314;2022-08-14T04:48:45;11.77;;;10.68;;
57828;SDS011;43657;52.698;6.314;2022-08-14T04:51:19;12.38;;;11.18;;
57828;SDS011;43657;52.698;6.314;2022-08-14T04:53:56;12.38;;;10.65;;
57828;SDS011;43657;52.698;6.314;2022-08-14T04:56:32;12.00;;;10.90;;
57828;SDS011;43657;52.698;6.314;2022-08-14T04:59:03;11.73;;;10.63;;
57828;SDS011;43657;52.698;6.314;2022-08-14T05:01:31;11.68;;;10.57;;
57828;SDS011;43657;52.698;6.314;2022-08-14T05:03:56;12.25;;;11.15;;
57828;SDS011;43657;52.698;6.314;2022-08-14T05:06:23;11.73;;;10.63;;
57828;SDS011;43657;52.698;6.314;2022-08-14T05:08:57;11.93;;;10.82;;
57828;SDS011;43657;52.698;6.314;2022-08-14T05:11:24;11.82;;;10.65;;
57828;SDS011;43657;52.698;6.314;2022-08-14T05:13:49;11.75;;;10.65;;
57828;SDS011;43657;52.698;6.314;2022-08-14T05:16:15;11.57;;;10.48;;
57828;SDS011;43657;52.698;6.314;2022-08-14T05:18:41;12.00;;;10.85;;
57828;SDS011;43657;52.698;6.314;2022-08-14T05:21:13;12.38;;;11.32;;
57828;SDS011;43657;52.698;6.314;2022-08-14T05:26:43;12.18;;;11.00;;
57828;SDS011;43657;52.698;6.314;2022-08-14T05:29:11;12.35;;;11.00;;
57828;SDS011;43657;52.698;6.314;2022-08-14T05:31:45;12.25;;;11.05;;
57828;SDS011;43657;52.698;6.314;2022-08-14T05:34:21;12.65;;;11.48;;
57828;SDS011;43657;52.698;6.314;2022-08-14T05:37:00;11.63;;;10.52;;
57828;SDS011;43657;52.698;6.314;2022-08-14T05:39:38;11.75;;;10.65;;
57828;SDS011;43657;52.698;6.314;2022-08-14T05:42:06;12.30;;;11.13;;
57828;SDS011;43657;52.698;6.314;2022-08-14T05:44:32;11.38;;;10.38;;
57828;SDS011;43657;52.698;6.314;2022-08-14T05:47:01;11.60;;;10.50;;
57828;SDS011;43657;52.698;6.314;2022-08-14T05:49:29;12.38;;;11.18;;
57828;SDS011;43657;52.698;6.314;2022-08-14T05:51:58;12.27;;;11.18;;
57828;SDS011;43657;52.698;6.314;2022-08-14T05:54:25;11.82;;;10.82;;
57828;SDS011;43657;52.698;6.314;2022-08-14T05:57:06;11.82;;;10.68;;
57828;SDS011;43657;52.698;6.314;2022-08-14T05:59:34;11.73;;;10.63;;
57828;SDS011;43657;52.698;6.314;2022-08-14T06:02:05;12.18;;;11.02;;
57828;SDS011;43657;52.698;6.314;2022-08-14T06:04:33;13.57;;;10.75;;
57828;SDS011;43657;52.698;6.314;2022-08-14T06:07:03;11.70;;;10.60;;
57828;SDS011;43657;52.698;6.314;2022-08-14T06:09:29;11.98;;;10.88;;
57828;SDS011;43657;52.698;6.314;2022-08-14T06:15:05;10.10;;;9.20;;
57828;SDS011;43657;52.698;6.314;2022-08-14T06:17:41;11.05;;;9.93;;
57828;SDS011;43657;52.698;6.314;2022-08-14T06:20:58;10.60;;;9.60;;
57828;SDS011;43657;52.698;6.314;2022-08-14T06:23:23;11.05;;;9.70;;
57828;SDS011;43657;52.698;6.314;2022-08-14T06:25:49;10.43;;;9.45;;
57828;SDS011;43657;52.698;6.314;2022-08-14T06:28:24;10.88;;;9.77;;
57828;SDS011;43657;52.698;6.314;2022-08-14T06:30:54;10.27;;;9.38;;
57828;SDS011;43657;52.698;6.314;2022-08-14T06:33:20;10.18;;;9.07;;
57828;SDS011;43657;52.698;6.314;2022-08-14T06:35:47;11.05;;;9.98;;
57828;SDS011;43657;52.698;6.314;2022-08-14T06:38:16;9.82;;;8.93;;
57828;SDS011;43657;52.698;6.314;2022-08-14T06:40:44;10.13;;;9.23;;
57828;SDS011;43657;52.698;6.314;2022-08-14T06:43:12;10.30;;;9.40;;
57828;SDS011;43657;52.698;6.314;2022-08-14T06:45:40;10.75;;;9.55;;
57828;SDS011;43657;52.698;6.314;2022-08-14T06:48:13;9.43;;;8.52;;
57828;SDS011;43657;52.698;6.314;2022-08-14T06:50:41;9.32;;;8.43;;
57828;SDS011;43657;52.698;6.314;2022-08-14T06:53:08;8.57;;;7.78;;
57828;SDS011;43657;52.698;6.314;2022-08-14T06:55:34;8.68;;;7.97;;
57828;SDS011;43657;52.698;6.314;2022-08-14T06:58:03;10.13;;;9.13;;
57828;SDS011;43657;52.698;6.314;2022-08-14T07:00:28;9.48;;;8.60;;
57828;SDS011;43657;52.698;6.314;2022-08-14T07:02:54;9.55;;;8.75;;
57828;SDS011;43657;52.698;6.314;2022-08-14T07:05:39;9.02;;;8.13;;
57828;SDS011;43657;52.698;6.314;2022-08-14T07:08:31;10.38;;;9.13;;
57828;SDS011;43657;52.698;6.314;2022-08-14T07:11:07;9.27;;;8.38;;
57828;SDS011;43657;52.698;6.314;2022-08-14T07:13:36;8.52;;;7.57;;
57828;SDS011;43657;52.698;6.314;2022-08-14T07:17:33;8.60;;;7.80;;
57828;SDS011;43657;52.698;6.314;2022-08-14T07:20:43;8.77;;;7.97;;
57828;SDS011;43657;52.698;6.314;2022-08-14T07:23:09;8.52;;;7.72;;
57828;SDS011;43657;52.698;6.314;2022-08-14T07:26:32;8.10;;;7.40;;
57828;SDS011;43657;52.698;6.314;2022-08-14T07:28:58;7.80;;;7.00;;
57828;SDS011;43657;52.698;6.314;2022-08-14T07:31:24;8.45;;;7.75;;
57828;SDS011;43657;52.698;6.314;2022-08-14T07:33:49;8.38;;;7.55;;
57828;SDS011;43657;52.698;6.314;2022-08-14T07:36:16;8.82;;;8.02;;
57828;SDS011;43657;52.698;6.314;2022-08-14T07:38:44;8.18;;;7.40;;
57828;SDS011;43657;52.698;6.314;2022-08-14T07:41:10;8.40;;;7.60;;
57828;SDS011;43657;52.698;6.314;2022-08-14T07:43:37;8.27;;;7.47;;
57828;SDS011;43657;52.698;6.314;2022-08-14T07:46:04;8.02;;;7.18;;
57828;SDS011;43657;52.698;6.314;2022-08-14T07:48:30;7.30;;;6.60;;
57828;SDS011;43657;52.698;6.314;2022-08-14T07:50:56;8.80;;;7.53;;
57828;SDS011;43657;52.698;6.314;2022-08-14T07:53:22;7.05;;;6.40;;
57828;SDS011;43657;52.698;6.314;2022-08-14T07:55:48;7.93;;;7.22;;
57828;SDS011;43657;52.698;6.314;2022-08-14T08:05:25;7.97;;;7.22;;
57828;SDS011;43657;52.698;6.314;2022-08-14T08:08:09;8.07;;;7.03;;
57828;SDS011;43657;52.698;6.314;2022-08-14T10:10:12;3.88;;;3.58;;
57828;SDS011;43657;52.698;6.314;2022-08-14T10:41:39;4.43;;;3.72;;
57828;SDS011;43657;52.698;6.314;2022-08-14T12:13:22;4.07;;;3.67;;
57828;SDS011;43657;52.698;6.314;2022-08-14T12:15:56;3.47;;;3.17;;
57828;SDS011;43657;52.698;6.314;2022-08-14T12:18:29;3.65;;;3.20;;
57828;SDS011;43657;52.698;6.314;2022-08-14T12:20:56;4.80;;;3.67;;
57828;SDS011;43657;52.698;6.314;2022-08-14T12:23:22;4.22;;;3.30;;
57828;SDS011;43657;52.698;6.314;2022-08-14T12:26:00;3.97;;;3.30;;
57828;SDS011;43657;52.698;6.314;2022-08-14T12:28:28;3.90;;;3.50;;
57828;SDS011;43657;52.698;6.314;2022-08-14T12:30:54;6.38;;;3.50;;
57828;SDS011;43657;52.698;6.314;2022-08-14T12:33:29;3.53;;;3.22;;
57828;SDS011;43657;52.698;6.314;2022-08-14T12:36:05;3.75;;;3.45;;
57828;SDS011;43657;52.698;6.314;2022-08-14T12:38:40;4.07;;;3.78;;
57828;SDS011;43657;52.698;6.314;2022-08-14T12:41:11;4.38;;;3.97;;
57828;SDS011;43657;52.698;6.314;2022-08-14T12:43:50;4.15;;;3.78;;
57828;SDS011;43657;52.698;6.314;2022-08-14T12:46:27;4.60;;;4.20;;
57828;SDS011;43657;52.698;6.314;2022-08-14T12:48:58;4.40;;;4.00;;
57828;SDS011;43657;52.698;6.314;2022-08-14T12:51:28;4.55;;;4.10;;
57828;SDS011;43657;52.698;6.314;2022-08-14T12:53:55;4.03;;;3.60;;
57828;SDS011;43657;52.698;6.314;2022-08-14T12:56:22;3.88;;;3.40;;
57828;SDS011;43657;52.698;6.314;2022-08-14T12:58:52;3.97;;;3.67;;
57828;SDS011;43657;52.698;6.314;2022-08-14T13:01:20;4.03;;;3.60;;
57828;SDS011;43657;52.698;6.314;2022-08-14T13:03:49;3.85;;;3.55;;
57828;SDS011;43657;52.698;6.314;2022-08-14T13:06:16;5.13;;;3.50;;
57828;SDS011;43657;52.698;6.314;2022-08-14T13:08:43;4.00;;;3.60;;
57828;SDS011;43657;52.698;6.314;2022-08-14T13:11:12;4.35;;;3.90;;
57828;SDS011;43657;52.698;6.314;2022-08-14T13:13:42;4.07;;;3.78;;
57828;SDS011;43657;52.698;6.314;2022-08-14T13:16:11;3.83;;;3.53;;
57828;SDS011;43657;52.698;6.314;2022-08-14T13:18:40;4.43;;;3.67;;
57828;SDS011;43657;52.698;6.314;2022-08-14T13:21:09;3.67;;;3.38;;
57828;SDS011;43657;52.698;6.314;2022-08-14T13:23:36;4.55;;;4.00;;
57828;SDS011;43657;52.698;6.314;2022-08-14T13:26:06;4.05;;;3.75;;
57828;SDS011;43657;52.698;6.314;2022-08-14T13:28:32;3.95;;;3.65;;
57828;SDS011;43657;52.698;6.314;2022-08-14T13:31:04;5.15;;;3.97;;
57828;SDS011;43657;52.698;6.314;2022-08-14T13:33:33;4.63;;;4.25;;
57828;SDS011;43657;52.698;6.314;2022-08-14T13:36:03;4.35;;;3.95;;
57828;SDS011;43657;52.698;6.314;2022-08-14T13:38:29;4.47;;;4.07;;
57828;SDS011;43657;52.698;6.314;2022-08-14T13:40:55;4.97;;;3.75;;
57828;SDS011;43657;52.698;6.314;2022-08-14T13:43:22;7.00;;;3.95;;
57828;SDS011;43657;52.698;6.314;2022-08-14T13:45:50;3.90;;;3.60;;
57828;SDS011;43657;52.698;6.314;2022-08-14T13:48:17;9.07;;;4.53;;
57828;SDS011;43657;52.698;6.314;2022-08-14T13:50:43;3.85;;;3.55;;
57828;SDS011;43657;52.698;6.314;2022-08-14T13:53:12;4.25;;;3.90;;
57828;SDS011;43657;52.698;6.314;2022-08-14T13:55:39;4.53;;;4.13;;
57828;SDS011;43657;52.698;6.314;2022-08-14T13:58:08;4.28;;;3.88;;
57828;SDS011;43657;52.698;6.314;2022-08-14T14:00:35;4.50;;;4.10;;
57828;SDS011;43657;52.698;6.314;2022-08-14T14:03:02;4.00;;;3.60;;
57828;SDS011;43657;52.698;6.314;2022-08-14T14:05:32;4.78;;;4.38;;
57828;SDS011;43657;52.698;6.314;2022-08-14T14:08:02;4.22;;;3.80;;
57828;SDS011;43657;52.698;6.314;2022-08-14T14:10:31;4.50;;;4.10;;
57828;SDS011;43657;52.698;6.314;2022-08-14T14:13:00;4.55;;;4.15;;
57828;SDS011;43657;52.698;6.314;2022-08-14T14:15:26;4.68;;;4.28;;
57828;SDS011;43657;52.698;6.314;2022-08-14T14:17:52;4.90;;;4.45;;
57828;SDS011;43657;52.698;6.314;2022-08-14T14:20:20;4.60;;;4.20;;
57828;SDS011;43657;52.698;6.314;2022-08-14T14:22:49;4.40;;;4.00;;
57828;SDS011;43657;52.698;6.314;2022-08-14T14:25:16;4.68;;;4.28;;
57828;SDS011;43657;52.698;6.314;2022-08-14T14:27:44;4.20;;;3.90;;
57828;SDS011;43657;52.698;6.314;2022-08-14T14:30:12;4.32;;;3.92;;
57828;SDS011;43657;52.698;6.314;2022-08-14T14:32:39;4.43;;;4.03;;
57828;SDS011;43657;52.698;6.314;2022-08-14T14:35:07;4.25;;;3.80;;
57828;SDS011;43657;52.698;6.314;2022-08-14T14:37:39;3.92;;;3.63;;
57828;SDS011;43657;52.698;6.314;2022-08-14T14:40:06;5.30;;;3.60;;
57828;SDS011;43657;52.698;6.314;2022-08-14T14:42:32;4.40;;;4.00;;
57828;SDS011;43657;52.698;6.314;2022-08-14T14:45:09;4.40;;;4.00;;
57828;SDS011;43657;52.698;6.314;2022-08-14T14:47:49;4.28;;;3.97;;
57828;SDS011;43657;52.698;6.314;2022-08-14T14:50:17;4.63;;;4.20;;
57828;SDS011;43657;52.698;6.314;2022-08-14T14:52:44;6.95;;;4.03;;
57828;SDS011;43657;52.698;6.314;2022-08-14T14:55:10;4.38;;;3.97;;
57828;SDS011;43657;52.698;6.314;2022-08-14T14:57:37;4.15;;;3.75;;
57828;SDS011;43657;52.698;6.314;2022-08-14T15:00:08;3.90;;;3.60;;
57828;SDS011;43657;52.698;6.314;2022-08-14T15:02:37;4.22;;;3.67;;
57828;SDS011;43657;52.698;6.314;2022-08-14T15:05:08;4.18;;;3.88;;
57828;SDS011;43657;52.698;6.314;2022-08-14T15:07:35;4.32;;;3.92;;
57828;SDS011;43657;52.698;6.314;2022-08-14T15:10:03;4.30;;;3.97;;
57828;SDS011;43657;52.698;6.314;2022-08-14T15:12:30;4.43;;;3.78;;
57828;SDS011;43657;52.698;6.314;2022-08-14T15:14:57;4.47;;;4.07;;
57828;SDS011;43657;52.698;6.314;2022-08-14T15:17:23;4.47;;;4.10;;
57828;SDS011;43657;52.698;6.314;2022-08-14T15:19:49;5.15;;;4.65;;
57828;SDS011;43657;52.698;6.314;2022-08-14T15:22:15;5.20;;;4.28;;
57828;SDS011;43657;52.698;6.314;2022-08-14T15:24:41;4.72;;;4.32;;
57828;SDS011;43657;52.698;6.314;2022-08-14T15:27:07;5.15;;;4.65;;
57828;SDS011;43657;52.698;6.314;2022-08-14T15:29:33;4.50;;;4.10;;
57828;SDS011;43657;52.698;6.314;2022-08-14T15:32:05;5.40;;;4.20;;
57828;SDS011;43657;52.698;6.314;2022-08-14T15:34:32;4.63;;;4.15;;
57828;SDS011;43657;52.698;6.314;2022-08-14T15:36:58;5.28;;;4.45;;
57828;SDS011;43657;52.698;6.314;2022-08-14T15:39:24;5.53;;;3.95;;
57828;SDS011;43657;52.698;6.314;2022-08-14T15:41:50;5.00;;;4.60;;
57828;SDS011;43657;52.698;6.314;2022-08-14T15:44:15;4.78;;;3.80;;
57828;SDS011;43657;52.698;6.314;2022-08-14T15:46:41;5.07;;;3.92;;
57828;SDS011;43657;52.698;6.314;2022-08-14T15:49:07;4.55;;;4.15;;
57828;SDS011;43657;52.698;6.314;2022-08-14T15:51:35;5.05;;;4.55;;
57828;SDS011;43657;52.698;6.314;2022-08-14T15:54:01;4.53;;;4.13;;
57828;SDS011;43657;52.698;6.314;2022-08-14T15:56:27;4.43;;;3.92;;
57828;SDS011;43657;52.698;6.314;2022-08-14T15:58:52;4.53;;;4.13;;
57828;SDS011;43657;52.698;6.314;2022-08-14T16:01:18;5.65;;;4.13;;
57828;SDS011;43657;52.698;6.314;2022-08-14T16:03:52;4.40;;;4.00;;
57828;SDS011;43657;52.698;6.314;2022-08-14T16:06:20;4.53;;;4.13;;
57828;SDS011;43657;52.698;6.314;2022-08-14T16:08:51;4.40;;;4.00;;
57828;SDS011;43657;52.698;6.314;2022-08-14T16:11:18;4.25;;;3.88;;
57828;SDS011;43657;52.698;6.314;2022-08-14T16:13:44;4.70;;;4.30;;
57828;SDS011;43657;52.698;6.314;2022-08-14T16:18:42;5.85;;;4.07;;
57828;SDS011;43657;52.698;6.314;2022-08-14T16:21:09;4.47;;;3.85;;
57828;SDS011;43657;52.698;6.314;2022-08-14T16:23:37;4.32;;;3.92;;
57828;SDS011;43657;52.698;6.314;2022-08-14T16:26:08;7.22;;;4.28;;
57828;SDS011;43657;52.698;6.314;2022-08-14T16:28:49;4.30;;;3.90;;
57828;SDS011;43657;52.698;6.314;2022-08-14T16:31:20;3.85;;;3.45;;
57828;SDS011;43657;52.698;6.314;2022-08-14T16:33:48;4.15;;;3.75;;
57828;SDS011;43657;52.698;6.314;2022-08-14T16:36:15;4.18;;;3.78;;
57828;SDS011;43657;52.698;6.314;2022-08-14T16:38:47;4.20;;;3.80;;
57828;SDS011;43657;52.698;6.314;2022-08-14T16:41:17;4.32;;;3.70;;
57828;SDS011;43657;52.698;6.314;2022-08-14T16:46:32;5.07;;;3.45;;
57828;SDS011;43657;52.698;6.314;2022-08-14T16:49:02;3.90;;;3.60;;
57828;SDS011;43657;52.698;6.314;2022-08-14T16:51:29;3.67;;;3.22;;
57828;SDS011;43657;52.698;6.314;2022-08-14T16:53:56;3.60;;;3.30;;
57828;SDS011;43657;52.698;6.314;2022-08-14T16:56:24;4.38;;;3.72;;
57828;SDS011;43657;52.698;6.314;2022-08-14T17:01:43;3.65;;;3.35;;
57828;SDS011;43657;52.698;6.314;2022-08-14T17:04:11;5.00;;;3.45;;
57828;SDS011;43657;52.698;6.314;2022-08-14T17:06:49;3.75;;;3.45;;
57828;SDS011;43657;52.698;6.314;2022-08-14T17:17:25;3.85;;;3.53;;
57828;SDS011;43657;52.698;6.314;2022-08-14T17:20:05;3.93;;;3.63;;
57828;SDS011;43657;52.698;6.314;2022-08-14T17:25:14;5.50;;;3.60;;
57828;SDS011;43657;52.698;6.314;2022-08-14T17:30:47;4.53;;;3.90;;
57828;SDS011;43657;52.698;6.314;2022-08-14T17:33:21;3.97;;;3.58;;
57828;SDS011;43657;52.698;6.314;2022-08-14T17:35:49;4.20;;;3.47;;
57828;SDS011;43657;52.698;6.314;2022-08-14T17:38:34;4.32;;;3.92;;
57828;SDS011;43657;52.698;6.314;2022-08-14T17:41:15;4.53;;;3.50;;
57828;SDS011;43657;52.698;6.314;2022-08-14T17:43:49;3.78;;;3.47;;
57828;SDS011;43657;52.698;6.314;2022-08-14T17:46:32;4.35;;;3.95;;
57828;SDS011;43657;52.698;6.314;2022-08-14T17:49:07;4.32;;;3.92;;
57828;SDS011;43657;52.698;6.314;2022-08-14T17:51:34;3.97;;;3.67;;
57828;SDS011;43657;52.698;6.314;2022-08-14T17:54:16;4.97;;;4.47;;
57828;SDS011;43657;52.698;6.314;2022-08-14T17:56:44;4.32;;;3.92;;
57828;SDS011;43657;52.698;6.314;2022-08-14T17:59:10;6.30;;;4.10;;
57828;SDS011;43657;52.698;6.314;2022-08-14T18:01:37;7.07;;;4.30;;
57828;SDS011;43657;52.698;6.314;2022-08-14T18:04:07;5.57;;;4.00;;
57828;SDS011;43657;52.698;6.314;2022-08-14T18:06:34;7.50;;;4.18;;
57828;SDS011;43657;52.698;6.314;2022-08-14T18:09:01;7.55;;;4.60;;
57828;SDS011;43657;52.698;6.314;2022-08-14T18:11:28;5.72;;;4.03;;
57828;SDS011;43657;52.698;6.314;2022-08-14T18:13:54;5.00;;;4.28;;
57828;SDS011;43657;52.698;6.314;2022-08-14T18:16:23;5.22;;;4.22;;
57828;SDS011;43657;52.698;6.314;2022-08-14T18:18:52;5.35;;;4.78;;
57828;SDS011;43657;52.698;6.314;2022-08-14T18:21:18;5.03;;;4.63;;
57828;SDS011;43657;52.698;6.314;2022-08-14T21:41:59;10.73;;;9.25;;
57828;SDS011;43657;52.698;6.314;2022-08-14T21:44:26;9.75;;;8.68;;
57828;SDS011;43657;52.698;6.314;2022-08-14T21:46:57;10.13;;;9.13;;
57828;SDS011;43657;52.698;6.314;2022-08-14T21:49:25;10.05;;;9.05;;
57828;SDS011;43657;52.698;6.314;2022-08-14T21:51:57;9.93;;;8.95;;
57828;SDS011;43657;52.698;6.314;2022-08-14T21:54:27;10.45;;;9.45;;
57828;SDS011;43657;52.698;6.314;2022-08-14T21:56:57;9.85;;;8.95;;
57828;SDS011;43657;52.698;6.314;2022-08-14T21:59:24;12.52;;;9.93;;
57828;SDS011;43657;52.698;6.314;2022-08-14T22:01:55;10.02;;;9.10;;
57828;SDS011;43657;52.698;6.314;2022-08-14T22:04:22;9.35;;;8.45;;
57828;SDS011;43657;52.698;6.314;2022-08-14T22:06:49;11.70;;;10.52;;
57828;SDS011;43657;52.698;6.314;2022-08-14T22:09:16;11.85;;;10.05;;
57828;SDS011;43657;52.698;6.314;2022-08-14T22:11:45;9.80;;;8.77;;
57828;SDS011;43657;52.698;6.314;2022-08-14T22:14:11;11.13;;;10.02;;
57828;SDS011;43657;52.698;6.314;2022-08-14T22:16:38;10.80;;;9.80;;
57828;SDS011;43657;52.698;6.314;2022-08-14T22:19:09;11.23;;;10.23;;
57828;SDS011;43657;52.698;6.314;2022-08-14T22:21:37;13.73;;;11.13;;
57828;SDS011;43657;52.698;6.314;2022-08-14T22:24:03;11.90;;;10.70;;
57828;SDS011;43657;52.698;6.314;2022-08-14T22:26:29;11.82;;;10.65;;
57828;SDS011;43657;52.698;6.314;2022-08-14T22:28:55;11.50;;;10.35;;
57828;SDS011;43657;52.698;6.314;2022-08-14T22:31:21;11.70;;;10.50;;
57828;SDS011;43657;52.698;6.314;2022-08-14T22:33:48;13.70;;;11.18;;
57828;SDS011;43657;52.698;6.314;2022-08-14T22:36:16;12.45;;;11.25;;
57828;SDS011;43657;52.698;6.314;2022-08-14T22:39:01;11.45;;;10.30;;
57828;SDS011;43657;52.698;6.314;2022-08-14T22:41:28;13.30;;;12.00;;
57828;SDS011;43657;52.698;6.314;2022-08-14T22:43:56;11.60;;;10.40;;
57828;SDS011;43657;52.698;6.314;2022-08-14T22:46:24;12.95;;;11.60;;
57828;SDS011;43657;52.698;6.314;2022-08-14T22:48:49;12.70;;;11.45;;
57828;SDS011;43657;52.698;6.314;2022-08-14T22:51:18;12.73;;;11.52;;
57828;SDS011;43657;52.698;6.314;2022-08-14T22:53:45;12.80;;;11.60;;
57828;SDS011;43657;52.698;6.314;2022-08-14T22:56:14;11.98;;;10.85;;
57828;SDS011;43657;52.698;6.314;2022-08-14T22:58:40;14.25;;;12.85;;
57828;SDS011;43657;52.698;6.314;2022-08-14T23:01:07;12.30;;;11.15;;
57828;SDS011;43657;52.698;6.314;2022-08-14T23:03:38;12.90;;;11.60;;
57828;SDS011;43657;52.698;6.314;2022-08-14T23:06:06;12.02;;;10.93;;
57828;SDS011;43657;52.698;6.314;2022-08-14T23:08:33;11.20;;;10.20;;
57828;SDS011;43657;52.698;6.314;2022-08-14T23:10:59;13.20;;;11.80;;
57828;SDS011;43657;52.698;6.314;2022-08-14T23:13:26;12.23;;;11.13;;
57828;SDS011;43657;52.698;6.314;2022-08-14T23:15:51;12.65;;;11.45;;
57828;SDS011;43657;52.698;6.314;2022-08-14T23:18:17;11.73;;;10.63;;
57828;SDS011;43657;52.698;6.314;2022-08-14T23:20:46;13.07;;;11.77;;
57828;SDS011;43657;52.698;6.314;2022-08-14T23:23:12;12.55;;;11.25;;
57828;SDS011;43657;52.698;6.314;2022-08-14T23:25:40;13.27;;;12.07;;
57828;SDS011;43657;52.698;6.314;2022-08-14T23:28:07;12.52;;;11.32;;
57828;SDS011;43657;52.698;6.314;2022-08-14T23:30:33;13.07;;;11.73;;
57828;SDS011;43657;52.698;6.314;2022-08-14T23:32:59;12.68;;;11.40;;
57828;SDS011;43657;52.698;6.314;2022-08-14T23:35:25;13.05;;;11.85;;
57828;SDS011;43657;52.698;6.314;2022-08-14T23:37:53;13.27;;;11.98;;
57828;SDS011;43657;52.698;6.314;2022-08-14T23:40:21;14.05;;;12.75;;
57828;SDS011;43657;52.698;6.314;2022-08-14T23:43:02;13.05;;;11.85;;
57828;SDS011;43657;52.698;6.314;2022-08-14T23:45:38;13.20;;;12.00;;
57828;SDS011;43657;52.698;6.314;2022-08-14T23:48:14;12.05;;;10.85;;
57828;SDS011;43657;52.698;6.314;2022-08-14T23:50:41;12.70;;;11.45;;
57828;SDS011;43657;52.698;6.314;2022-08-14T23:55:49;13.15;;;11.95;;
57828;SDS011;43657;52.698;6.314;2022-08-14T23:58:16;13.85;;;11.43;;
